sensor_id;sensor_type;location;lat;lon;timestamp;noise_LAeq;noise_LA_min;noise_LA_max;noise_LA01;noise_LA95
66459;Laerm;56836;52.570;4.692;2022-12-05T00:00:03;47.75;46.76;49.78;;
66459;Laerm;56836;52.570;4.692;2022-12-05T00:00:13;47.88;46.76;49.63;;
66459;Laerm;56836;52.570;4.692;2022-12-05T00:00:24;47.70;46.79;48.68;;
66459;Laerm;56836;52.570;4.692;2022-12-05T00:00:35;47.71;46.58;48.58;;
66459;Laerm;56836;52.570;4.692;2022-12-05T00:00:45;47.75;46.73;48.73;;
66459;Laerm;56836;52.570;4.692;2022-12-05T00:00:56;47.68;46.76;48.50;;
66459;Laerm;56836;52.570;4.692;2022-12-05T00:01:44;47.67;46.80;48.48;;
66459;Laerm;56836;52.570;4.692;2022-12-05T00:01:54;47.67;46.71;48.49;;
66459;Laerm;56836;52.570;4.692;2022-12-05T00:02:05;47.72;46.67;48.59;;
66459;Laerm;56836;52.570;4.692;2022-12-05T00:02:15;47.71;46.45;48.61;;
66459;Laerm;56836;52.570;4.692;2022-12-05T00:02:27;47.69;46.83;48.82;;
66459;Laerm;56836;52.570;4.692;2022-12-05T00:02:38;47.64;46.75;48.56;;
66459;Laerm;56836;52.570;4.692;2022-12-05T00:02:48;47.66;46.74;48.93;;
66459;Laerm;56836;52.570;4.692;2022-12-05T00:03:02;47.70;46.60;48.76;;
66459;Laerm;56836;52.570;4.692;2022-12-05T00:03:12;47.64;46.64;48.56;;
66459;Laerm;56836;52.570;4.692;2022-12-05T00:03:25;47.69;46.89;48.54;;
66459;Laerm;56836;52.570;4.692;2022-12-05T00:03:36;47.64;46.87;48.43;;
66459;Laerm;56836;52.570;4.692;2022-12-05T00:03:47;47.68;46.67;48.62;;
66459;Laerm;56836;52.570;4.692;2022-12-05T00:03:58;47.65;46.72;48.43;;
66459;Laerm;56836;52.570;4.692;2022-12-05T00:04:10;47.64;46.65;48.54;;
66459;Laerm;56836;52.570;4.692;2022-12-05T00:04:30;47.64;46.65;48.54;;
66459;Laerm;56836;52.570;4.692;2022-12-05T00:04:41;47.66;46.60;48.84;;
66459;Laerm;56836;52.570;4.692;2022-12-05T00:04:51;47.65;46.65;48.56;;
66459;Laerm;56836;52.570;4.692;2022-12-05T00:05:01;47.68;46.73;48.41;;
66459;Laerm;56836;52.570;4.692;2022-12-05T00:05:12;47.69;46.90;48.71;;
66459;Laerm;56836;52.570;4.692;2022-12-05T00:05:22;47.65;46.47;48.49;;
66459;Laerm;56836;52.570;4.692;2022-12-05T00:05:39;47.66;46.68;48.34;;
66459;Laerm;56836;52.570;4.692;2022-12-05T00:05:49;47.70;46.65;48.96;;
66459;Laerm;56836;52.570;4.692;2022-12-05T00:06:00;47.67;46.67;48.60;;
66459;Laerm;56836;52.570;4.692;2022-12-05T00:06:10;47.61;46.70;48.59;;
66459;Laerm;56836;52.570;4.692;2022-12-05T00:06:21;47.62;46.82;48.58;;
66459;Laerm;56836;52.570;4.692;2022-12-05T00:06:32;47.62;46.89;48.57;;
66459;Laerm;56836;52.570;4.692;2022-12-05T00:06:43;47.68;46.82;48.54;;
66459;Laerm;56836;52.570;4.692;2022-12-05T00:06:53;47.64;46.61;48.42;;
66459;Laerm;56836;52.570;4.692;2022-12-05T00:07:04;47.67;46.72;48.51;;
66459;Laerm;56836;52.570;4.692;2022-12-05T00:07:14;47.62;46.67;48.68;;
66459;Laerm;56836;52.570;4.692;2022-12-05T00:07:24;47.72;46.71;48.81;;
66459;Laerm;56836;52.570;4.692;2022-12-05T00:07:44;47.68;46.56;49.05;;
66459;Laerm;56836;52.570;4.692;2022-12-05T00:07:54;47.62;46.60;48.90;;
66459;Laerm;56836;52.570;4.692;2022-12-05T00:08:05;47.58;46.44;48.62;;
66459;Laerm;56836;52.570;4.692;2022-12-05T00:08:15;47.62;46.70;48.35;;
66459;Laerm;56836;52.570;4.692;2022-12-05T00:08:25;47.57;46.45;48.55;;
66459;Laerm;56836;52.570;4.692;2022-12-05T00:08:36;47.62;46.76;48.48;;
66459;Laerm;56836;52.570;4.692;2022-12-05T00:08:47;47.60;46.87;48.55;;
66459;Laerm;56836;52.570;4.692;2022-12-05T00:08:57;47.70;46.80;49.25;;
66459;Laerm;56836;52.570;4.692;2022-12-05T00:09:08;47.71;46.70;48.76;;
66459;Laerm;56836;52.570;4.692;2022-12-05T00:09:19;47.61;46.70;48.53;;
66459;Laerm;56836;52.570;4.692;2022-12-05T00:09:29;47.63;46.60;48.50;;
66459;Laerm;56836;52.570;4.692;2022-12-05T00:09:39;47.57;46.80;48.51;;
66459;Laerm;56836;52.570;4.692;2022-12-05T00:09:50;47.57;46.81;48.38;;
66459;Laerm;56836;52.570;4.692;2022-12-05T00:10:00;47.63;46.78;48.51;;
66459;Laerm;56836;52.570;4.692;2022-12-05T00:10:11;47.56;46.60;48.43;;
66459;Laerm;56836;52.570;4.692;2022-12-05T00:10:21;47.60;46.70;48.48;;
66459;Laerm;56836;52.570;4.692;2022-12-05T00:10:34;47.61;46.64;48.53;;
66459;Laerm;56836;52.570;4.692;2022-12-05T00:10:44;47.63;46.73;48.65;;
66459;Laerm;56836;52.570;4.692;2022-12-05T00:10:55;47.57;46.81;48.37;;
66459;Laerm;56836;52.570;4.692;2022-12-05T00:11:13;47.69;46.46;49.63;;
66459;Laerm;56836;52.570;4.692;2022-12-05T00:11:25;47.60;46.70;48.57;;
66459;Laerm;56836;52.570;4.692;2022-12-05T00:11:37;47.60;46.31;48.58;;
66459;Laerm;56836;52.570;4.692;2022-12-05T00:11:47;47.64;46.41;48.57;;
66459;Laerm;56836;52.570;4.692;2022-12-05T00:11:58;47.58;46.65;48.49;;
66459;Laerm;56836;52.570;4.692;2022-12-05T00:12:08;47.59;46.64;48.70;;
66459;Laerm;56836;52.570;4.692;2022-12-05T00:12:19;47.59;46.73;48.52;;
66459;Laerm;56836;52.570;4.692;2022-12-05T00:12:29;47.57;46.27;48.48;;
66459;Laerm;56836;52.570;4.692;2022-12-05T00:12:39;47.58;46.27;48.50;;
66459;Laerm;56836;52.570;4.692;2022-12-05T00:12:56;47.62;46.40;48.77;;
66459;Laerm;56836;52.570;4.692;2022-12-05T00:13:06;47.58;46.47;48.59;;
66459;Laerm;56836;52.570;4.692;2022-12-05T00:13:17;47.59;46.79;48.49;;
66459;Laerm;56836;52.570;4.692;2022-12-05T00:13:27;47.57;46.25;48.53;;
66459;Laerm;56836;52.570;4.692;2022-12-05T00:13:37;47.60;46.74;48.38;;
66459;Laerm;56836;52.570;4.692;2022-12-05T00:13:51;47.56;46.70;48.43;;
66459;Laerm;56836;52.570;4.692;2022-12-05T00:14:02;47.55;46.55;48.49;;
66459;Laerm;56836;52.570;4.692;2022-12-05T00:14:13;47.59;46.66;48.48;;
66459;Laerm;56836;52.570;4.692;2022-12-05T00:14:23;47.56;46.59;48.61;;
66459;Laerm;56836;52.570;4.692;2022-12-05T00:14:33;47.57;46.71;49.00;;
66459;Laerm;56836;52.570;4.692;2022-12-05T00:14:44;47.57;46.64;48.48;;
66459;Laerm;56836;52.570;4.692;2022-12-05T00:14:54;47.64;46.60;48.54;;
66459;Laerm;56836;52.570;4.692;2022-12-05T00:15:05;47.58;46.60;48.49;;
66459;Laerm;56836;52.570;4.692;2022-12-05T00:15:15;47.58;46.74;48.47;;
66459;Laerm;56836;52.570;4.692;2022-12-05T00:15:26;47.56;46.56;48.50;;
66459;Laerm;56836;52.570;4.692;2022-12-05T00:15:38;47.60;46.63;48.49;;
66459;Laerm;56836;52.570;4.692;2022-12-05T00:15:49;47.58;46.54;48.47;;
66459;Laerm;56836;52.570;4.692;2022-12-05T00:16:00;47.64;46.74;48.49;;
66459;Laerm;56836;52.570;4.692;2022-12-05T00:16:11;47.61;46.64;48.72;;
66459;Laerm;56836;52.570;4.692;2022-12-05T00:16:22;47.72;46.46;48.70;;
66459;Laerm;56836;52.570;4.692;2022-12-05T00:16:34;47.94;46.95;50.17;;
66459;Laerm;56836;52.570;4.692;2022-12-05T00:16:45;48.32;46.82;50.60;;
66459;Laerm;56836;52.570;4.692;2022-12-05T00:16:55;47.96;46.96;50.14;;
66459;Laerm;56836;52.570;4.692;2022-12-05T00:17:05;47.69;46.79;48.75;;
66459;Laerm;56836;52.570;4.692;2022-12-05T00:17:16;47.58;46.63;48.35;;
66459;Laerm;56836;52.570;4.692;2022-12-05T00:17:29;47.59;46.56;48.47;;
66459;Laerm;56836;52.570;4.692;2022-12-05T00:17:40;47.59;46.75;48.53;;
66459;Laerm;56836;52.570;4.692;2022-12-05T00:17:50;47.64;46.81;48.83;;
66459;Laerm;56836;52.570;4.692;2022-12-05T00:18:01;47.62;46.62;48.91;;
66459;Laerm;56836;52.570;4.692;2022-12-05T00:18:11;47.57;46.61;48.53;;
66459;Laerm;56836;52.570;4.692;2022-12-05T00:18:22;47.58;46.72;48.42;;
66459;Laerm;56836;52.570;4.692;2022-12-05T00:18:32;47.55;46.62;48.43;;
66459;Laerm;56836;52.570;4.692;2022-12-05T00:18:42;47.56;46.71;48.39;;
66459;Laerm;56836;52.570;4.692;2022-12-05T00:18:53;47.62;46.74;49.15;;
66459;Laerm;56836;52.570;4.692;2022-12-05T00:19:11;47.58;46.69;48.81;;
66459;Laerm;56836;52.570;4.692;2022-12-05T00:19:22;47.57;46.41;48.51;;
66459;Laerm;56836;52.570;4.692;2022-12-05T00:19:32;47.56;46.51;48.56;;
66459;Laerm;56836;52.570;4.692;2022-12-05T00:19:43;47.57;46.72;48.70;;
66459;Laerm;56836;52.570;4.692;2022-12-05T00:19:53;47.61;46.40;48.58;;
66459;Laerm;56836;52.570;4.692;2022-12-05T00:20:10;47.55;46.75;48.54;;
66459;Laerm;56836;52.570;4.692;2022-12-05T00:20:21;47.55;46.43;48.59;;
66459;Laerm;56836;52.570;4.692;2022-12-05T00:20:31;47.59;46.61;48.46;;
66459;Laerm;56836;52.570;4.692;2022-12-05T00:20:45;47.58;46.63;48.45;;
66459;Laerm;56836;52.570;4.692;2022-12-05T00:20:56;47.58;46.55;48.68;;
66459;Laerm;56836;52.570;4.692;2022-12-05T00:21:06;47.61;46.51;48.55;;
66459;Laerm;56836;52.570;4.692;2022-12-05T00:21:18;47.57;46.71;48.32;;
66459;Laerm;56836;52.570;4.692;2022-12-05T00:21:30;47.53;46.44;48.60;;
66459;Laerm;56836;52.570;4.692;2022-12-05T00:21:48;47.55;46.71;48.39;;
66459;Laerm;56836;52.570;4.692;2022-12-05T00:21:58;47.58;46.47;48.63;;
66459;Laerm;56836;52.570;4.692;2022-12-05T00:22:08;47.59;46.64;48.43;;
66459;Laerm;56836;52.570;4.692;2022-12-05T00:22:19;47.57;46.70;48.46;;
66459;Laerm;56836;52.570;4.692;2022-12-05T00:22:29;47.57;46.59;48.64;;
66459;Laerm;56836;52.570;4.692;2022-12-05T00:22:40;47.58;46.54;48.57;;
66459;Laerm;56836;52.570;4.692;2022-12-05T00:22:51;47.58;46.66;48.54;;
66459;Laerm;56836;52.570;4.692;2022-12-05T00:23:01;47.57;46.78;48.52;;
66459;Laerm;56836;52.570;4.692;2022-12-05T00:23:11;47.62;46.65;49.35;;
66459;Laerm;56836;52.570;4.692;2022-12-05T00:23:23;47.55;46.55;48.44;;
66459;Laerm;56836;52.570;4.692;2022-12-05T00:23:33;47.56;46.63;48.61;;
66459;Laerm;56836;52.570;4.692;2022-12-05T00:23:44;47.56;46.74;48.45;;
66459;Laerm;56836;52.570;4.692;2022-12-05T00:23:54;47.56;46.60;48.43;;
66459;Laerm;56836;52.570;4.692;2022-12-05T00:24:07;47.55;46.57;48.43;;
66459;Laerm;56836;52.570;4.692;2022-12-05T00:24:18;47.55;46.77;48.37;;
66459;Laerm;56836;52.570;4.692;2022-12-05T00:24:29;47.53;46.56;48.57;;
66459;Laerm;56836;52.570;4.692;2022-12-05T00:24:40;47.55;46.66;48.51;;
66459;Laerm;56836;52.570;4.692;2022-12-05T00:24:50;47.54;46.56;48.47;;
66459;Laerm;56836;52.570;4.692;2022-12-05T00:25:01;47.53;46.67;48.28;;
66459;Laerm;56836;52.570;4.692;2022-12-05T00:25:11;47.54;46.62;48.56;;
66459;Laerm;56836;52.570;4.692;2022-12-05T00:25:21;47.51;46.67;48.18;;
66459;Laerm;56836;52.570;4.692;2022-12-05T00:25:40;47.54;46.76;48.73;;
66459;Laerm;56836;52.570;4.692;2022-12-05T00:25:51;47.56;46.44;48.44;;
66459;Laerm;56836;52.570;4.692;2022-12-05T00:26:02;47.57;46.74;48.66;;
66459;Laerm;56836;52.570;4.692;2022-12-05T00:26:13;47.57;46.47;48.52;;
66459;Laerm;56836;52.570;4.692;2022-12-05T00:26:46;47.55;46.67;48.44;;
66459;Laerm;56836;52.570;4.692;2022-12-05T00:26:56;47.51;46.56;48.61;;
66459;Laerm;56836;52.570;4.692;2022-12-05T00:27:06;47.55;46.29;48.40;;
66459;Laerm;56836;52.570;4.692;2022-12-05T00:27:17;47.56;46.62;48.38;;
66459;Laerm;56836;52.570;4.692;2022-12-05T00:27:27;47.57;46.58;48.51;;
66459;Laerm;56836;52.570;4.692;2022-12-05T00:27:38;47.56;46.68;48.52;;
66459;Laerm;56836;52.570;4.692;2022-12-05T00:27:48;47.54;46.31;48.49;;
66459;Laerm;56836;52.570;4.692;2022-12-05T00:27:59;47.56;46.70;48.48;;
66459;Laerm;56836;52.570;4.692;2022-12-05T00:28:10;47.56;46.77;48.31;;
66459;Laerm;56836;52.570;4.692;2022-12-05T00:28:20;47.59;46.64;48.64;;
66459;Laerm;56836;52.570;4.692;2022-12-05T00:28:31;47.61;46.72;48.79;;
66459;Laerm;56836;52.570;4.692;2022-12-05T00:28:43;47.63;46.85;48.93;;
66459;Laerm;56836;52.570;4.692;2022-12-05T00:28:55;47.56;46.42;48.41;;
66459;Laerm;56836;52.570;4.692;2022-12-05T00:29:05;47.56;46.58;48.78;;
66459;Laerm;56836;52.570;4.692;2022-12-05T00:29:16;47.60;46.75;48.60;;
66459;Laerm;56836;52.570;4.692;2022-12-05T00:29:29;47.53;46.61;48.37;;
66459;Laerm;56836;52.570;4.692;2022-12-05T00:29:40;47.56;46.70;48.50;;
66459;Laerm;56836;52.570;4.692;2022-12-05T00:29:50;47.57;46.56;48.99;;
66459;Laerm;56836;52.570;4.692;2022-12-05T00:30:01;47.54;46.58;48.46;;
66459;Laerm;56836;52.570;4.692;2022-12-05T00:30:11;47.57;46.73;48.45;;
66459;Laerm;56836;52.570;4.692;2022-12-05T00:30:21;47.52;46.63;48.58;;
66459;Laerm;56836;52.570;4.692;2022-12-05T00:30:32;47.50;46.65;48.31;;
66459;Laerm;56836;52.570;4.692;2022-12-05T00:30:42;47.57;46.83;49.19;;
66459;Laerm;56836;52.570;4.692;2022-12-05T00:30:53;47.53;46.65;48.54;;
66459;Laerm;56836;52.570;4.692;2022-12-05T00:31:07;47.56;46.62;48.56;;
66459;Laerm;56836;52.570;4.692;2022-12-05T00:31:18;47.58;46.68;49.24;;
66459;Laerm;56836;52.570;4.692;2022-12-05T00:31:31;47.54;46.42;48.81;;
66459;Laerm;56836;52.570;4.692;2022-12-05T00:31:42;47.59;46.57;48.43;;
66459;Laerm;56836;52.570;4.692;2022-12-05T00:31:52;47.53;46.71;48.44;;
66459;Laerm;56836;52.570;4.692;2022-12-05T00:32:02;47.53;46.51;48.41;;
66459;Laerm;56836;52.570;4.692;2022-12-05T00:32:15;47.58;46.72;48.81;;
66459;Laerm;56836;52.570;4.692;2022-12-05T00:32:27;47.49;46.41;48.42;;
66459;Laerm;56836;52.570;4.692;2022-12-05T00:32:37;47.49;46.57;48.44;;
66459;Laerm;56836;52.570;4.692;2022-12-05T00:32:48;47.56;46.85;48.50;;
66459;Laerm;56836;52.570;4.692;2022-12-05T00:32:58;47.51;46.46;48.35;;
66459;Laerm;56836;52.570;4.692;2022-12-05T00:33:10;47.52;46.72;48.54;;
66459;Laerm;56836;52.570;4.692;2022-12-05T00:33:21;47.53;46.50;48.47;;
66459;Laerm;56836;52.570;4.692;2022-12-05T00:33:31;47.49;46.73;48.49;;
66459;Laerm;56836;52.570;4.692;2022-12-05T00:33:42;47.55;46.40;48.47;;
66459;Laerm;56836;52.570;4.692;2022-12-05T00:33:53;47.52;46.57;48.57;;
66459;Laerm;56836;52.570;4.692;2022-12-05T00:34:03;47.56;46.56;49.34;;
66459;Laerm;56836;52.570;4.692;2022-12-05T00:34:14;47.55;46.30;48.70;;
66459;Laerm;56836;52.570;4.692;2022-12-05T00:34:24;47.58;46.51;48.77;;
66459;Laerm;56836;52.570;4.692;2022-12-05T00:34:35;47.54;46.73;48.64;;
66459;Laerm;56836;52.570;4.692;2022-12-05T00:34:45;47.48;46.55;48.69;;
66459;Laerm;56836;52.570;4.692;2022-12-05T00:34:56;47.55;46.36;48.30;;
66459;Laerm;56836;52.570;4.692;2022-12-05T00:35:06;47.46;46.58;48.28;;
66459;Laerm;56836;52.570;4.692;2022-12-05T00:35:17;47.49;46.52;48.40;;
66459;Laerm;56836;52.570;4.692;2022-12-05T00:35:27;47.48;46.53;48.52;;
66459;Laerm;56836;52.570;4.692;2022-12-05T00:35:37;47.54;46.53;48.40;;
66459;Laerm;56836;52.570;4.692;2022-12-05T00:36:06;47.49;46.40;48.44;;
66459;Laerm;56836;52.570;4.692;2022-12-05T00:36:18;47.48;46.43;48.53;;
66459;Laerm;56836;52.570;4.692;2022-12-05T00:36:29;47.51;46.69;48.40;;
66459;Laerm;56836;52.570;4.692;2022-12-05T00:36:42;47.48;46.65;48.44;;
66459;Laerm;56836;52.570;4.692;2022-12-05T00:36:52;47.46;46.57;48.21;;
66459;Laerm;56836;52.570;4.692;2022-12-05T00:37:02;47.44;46.57;48.37;;
66459;Laerm;56836;52.570;4.692;2022-12-05T00:37:13;47.50;46.77;49.00;;
66459;Laerm;56836;52.570;4.692;2022-12-05T00:37:23;47.41;46.13;48.27;;
66459;Laerm;56836;52.570;4.692;2022-12-05T00:37:35;47.48;46.76;48.26;;
66459;Laerm;56836;52.570;4.692;2022-12-05T00:37:45;47.48;46.57;48.36;;
66459;Laerm;56836;52.570;4.692;2022-12-05T00:37:55;47.43;46.35;48.24;;
66459;Laerm;56836;52.570;4.692;2022-12-05T00:38:06;47.46;46.39;48.35;;
66459;Laerm;56836;52.570;4.692;2022-12-05T00:38:22;47.42;46.58;48.55;;
66459;Laerm;56836;52.570;4.692;2022-12-05T00:38:33;47.47;46.55;48.42;;
66459;Laerm;56836;52.570;4.692;2022-12-05T00:38:43;47.44;46.47;48.34;;
66459;Laerm;56836;52.570;4.692;2022-12-05T00:38:54;47.44;46.51;48.25;;
66459;Laerm;56836;52.570;4.692;2022-12-05T00:39:06;47.42;46.58;48.24;;
66459;Laerm;56836;52.570;4.692;2022-12-05T00:39:17;47.41;46.20;48.23;;
66459;Laerm;56836;52.570;4.692;2022-12-05T00:39:27;47.47;46.45;48.34;;
66459;Laerm;56836;52.570;4.692;2022-12-05T00:39:38;47.42;46.61;48.24;;
66459;Laerm;56836;52.570;4.692;2022-12-05T00:39:56;47.41;46.39;48.22;;
66459;Laerm;56836;52.570;4.692;2022-12-05T00:40:06;47.41;46.05;48.43;;
66459;Laerm;56836;52.570;4.692;2022-12-05T00:40:17;47.39;46.59;48.15;;
66459;Laerm;56836;52.570;4.692;2022-12-05T00:40:27;47.43;46.35;48.30;;
66459;Laerm;56836;52.570;4.692;2022-12-05T00:40:38;47.39;46.33;48.14;;
66459;Laerm;56836;52.570;4.692;2022-12-05T00:40:48;47.43;46.51;48.13;;
66459;Laerm;56836;52.570;4.692;2022-12-05T00:41:05;47.41;46.47;48.35;;
66459;Laerm;56836;52.570;4.692;2022-12-05T00:41:17;47.40;46.44;48.33;;
66459;Laerm;56836;52.570;4.692;2022-12-05T00:41:33;47.37;46.31;48.34;;
66459;Laerm;56836;52.570;4.692;2022-12-05T00:41:44;47.40;46.44;48.34;;
66459;Laerm;56836;52.570;4.692;2022-12-05T00:41:54;47.40;46.63;48.30;;
66459;Laerm;56836;52.570;4.692;2022-12-05T00:42:05;47.42;46.48;48.34;;
66459;Laerm;56836;52.570;4.692;2022-12-05T00:42:15;47.37;46.31;48.44;;
66459;Laerm;56836;52.570;4.692;2022-12-05T00:42:25;47.36;46.56;48.37;;
66459;Laerm;56836;52.570;4.692;2022-12-05T00:42:36;47.38;46.47;48.14;;
66459;Laerm;56836;52.570;4.692;2022-12-05T00:42:46;47.41;46.58;48.86;;
66459;Laerm;56836;52.570;4.692;2022-12-05T00:42:56;47.40;46.54;48.92;;
66459;Laerm;56836;52.570;4.692;2022-12-05T00:43:07;47.43;46.61;48.41;;
66459;Laerm;56836;52.570;4.692;2022-12-05T00:43:17;47.37;46.60;48.34;;
66459;Laerm;56836;52.570;4.692;2022-12-05T00:43:27;47.36;46.47;48.42;;
66459;Laerm;56836;52.570;4.692;2022-12-05T00:43:38;47.36;46.65;48.30;;
66459;Laerm;56836;52.570;4.692;2022-12-05T00:43:49;47.36;46.16;48.43;;
66459;Laerm;56836;52.570;4.692;2022-12-05T00:44:13;47.30;46.40;48.61;;
66459;Laerm;56836;52.570;4.692;2022-12-05T00:44:24;47.33;46.35;48.19;;
66459;Laerm;56836;52.570;4.692;2022-12-05T00:44:34;47.32;46.47;48.23;;
66459;Laerm;56836;52.570;4.692;2022-12-05T00:44:44;47.35;46.46;48.32;;
66459;Laerm;56836;52.570;4.692;2022-12-05T00:44:55;47.37;46.48;48.10;;
66459;Laerm;56836;52.570;4.692;2022-12-05T00:45:05;47.35;46.31;48.08;;
66459;Laerm;56836;52.570;4.692;2022-12-05T00:45:16;47.34;45.96;48.25;;
66459;Laerm;56836;52.570;4.692;2022-12-05T00:45:26;47.32;46.56;48.37;;
66459;Laerm;56836;52.570;4.692;2022-12-05T00:45:36;47.37;46.43;48.32;;
66459;Laerm;56836;52.570;4.692;2022-12-05T00:45:47;47.32;45.98;48.21;;
66459;Laerm;56836;52.570;4.692;2022-12-05T00:46:08;47.31;46.42;48.02;;
66459;Laerm;56836;52.570;4.692;2022-12-05T00:46:19;47.35;46.20;48.23;;
66459;Laerm;56836;52.570;4.692;2022-12-05T00:46:32;47.32;46.35;48.13;;
66459;Laerm;56836;52.570;4.692;2022-12-05T00:46:43;47.36;46.42;48.27;;
66459;Laerm;56836;52.570;4.692;2022-12-05T00:46:53;47.33;46.52;48.14;;
66459;Laerm;56836;52.570;4.692;2022-12-05T00:47:03;47.33;46.42;48.36;;
66459;Laerm;56836;52.570;4.692;2022-12-05T00:47:14;47.32;46.40;48.33;;
66459;Laerm;56836;52.570;4.692;2022-12-05T00:47:24;47.32;46.42;48.25;;
66459;Laerm;56836;52.570;4.692;2022-12-05T00:47:35;47.31;46.39;48.17;;
66459;Laerm;56836;52.570;4.692;2022-12-05T00:47:45;47.29;46.36;48.25;;
66459;Laerm;56836;52.570;4.692;2022-12-05T00:47:56;47.31;46.20;48.10;;
66459;Laerm;56836;52.570;4.692;2022-12-05T00:48:06;47.33;46.26;48.13;;
66459;Laerm;56836;52.570;4.692;2022-12-05T00:48:16;47.31;46.37;48.14;;
66459;Laerm;56836;52.570;4.692;2022-12-05T00:48:27;47.34;46.21;48.93;;
66459;Laerm;56836;52.570;4.692;2022-12-05T00:48:37;47.29;46.57;48.23;;
66459;Laerm;56836;52.570;4.692;2022-12-05T00:48:48;47.30;46.31;48.32;;
66459;Laerm;56836;52.570;4.692;2022-12-05T00:48:59;47.28;46.44;48.36;;
66459;Laerm;56836;52.570;4.692;2022-12-05T00:49:09;47.30;46.39;48.25;;
66459;Laerm;56836;52.570;4.692;2022-12-05T00:49:20;47.32;46.53;48.14;;
66459;Laerm;56836;52.570;4.692;2022-12-05T00:49:30;47.30;46.36;48.28;;
66459;Laerm;56836;52.570;4.692;2022-12-05T00:49:41;47.37;46.45;48.40;;
66459;Laerm;56836;52.570;4.692;2022-12-05T00:49:51;47.33;46.44;48.54;;
66459;Laerm;56836;52.570;4.692;2022-12-05T00:50:03;47.29;46.37;48.10;;
66459;Laerm;56836;52.570;4.692;2022-12-05T00:50:13;47.31;46.43;48.13;;
66459;Laerm;56836;52.570;4.692;2022-12-05T00:50:23;47.30;46.35;48.30;;
66459;Laerm;56836;52.570;4.692;2022-12-05T00:50:34;47.31;46.47;48.30;;
66459;Laerm;56836;52.570;4.692;2022-12-05T00:50:44;47.27;46.37;48.52;;
66459;Laerm;56836;52.570;4.692;2022-12-05T00:51:11;47.28;46.39;48.32;;
66459;Laerm;56836;52.570;4.692;2022-12-05T00:51:23;47.30;46.29;48.28;;
66459;Laerm;56836;52.570;4.692;2022-12-05T00:51:37;47.34;46.45;48.70;;
66459;Laerm;56836;52.570;4.692;2022-12-05T00:51:47;47.36;46.37;48.26;;
66459;Laerm;56836;52.570;4.692;2022-12-05T00:51:58;47.29;46.55;47.95;;
66459;Laerm;56836;52.570;4.692;2022-12-05T00:52:10;47.29;46.24;48.17;;
66459;Laerm;56836;52.570;4.692;2022-12-05T00:52:20;47.29;46.41;48.41;;
66459;Laerm;56836;52.570;4.692;2022-12-05T00:52:31;47.32;46.50;48.91;;
66459;Laerm;56836;52.570;4.692;2022-12-05T00:52:41;47.29;46.17;48.28;;
66459;Laerm;56836;52.570;4.692;2022-12-05T00:52:51;47.32;46.57;48.05;;
66459;Laerm;56836;52.570;4.692;2022-12-05T00:53:02;47.27;46.38;48.08;;
66459;Laerm;56836;52.570;4.692;2022-12-05T00:53:12;47.31;46.18;48.15;;
66459;Laerm;56836;52.570;4.692;2022-12-05T00:53:22;47.29;46.39;48.16;;
66459;Laerm;56836;52.570;4.692;2022-12-05T00:53:33;47.29;46.58;48.45;;
66459;Laerm;56836;52.570;4.692;2022-12-05T00:53:43;47.30;46.46;48.30;;
66459;Laerm;56836;52.570;4.692;2022-12-05T00:53:56;47.30;46.48;48.15;;
66459;Laerm;56836;52.570;4.692;2022-12-05T00:54:08;47.30;46.24;48.12;;
66459;Laerm;56836;52.570;4.692;2022-12-05T00:54:19;47.25;46.24;48.22;;
66459;Laerm;56836;52.570;4.692;2022-12-05T00:54:29;47.33;46.35;48.43;;
66459;Laerm;56836;52.570;4.692;2022-12-05T00:54:39;47.26;45.98;48.32;;
66459;Laerm;56836;52.570;4.692;2022-12-05T00:54:50;47.29;46.38;48.00;;
66459;Laerm;56836;52.570;4.692;2022-12-05T00:55:01;47.27;46.47;48.40;;
66459;Laerm;56836;52.570;4.692;2022-12-05T00:55:11;47.28;46.31;48.14;;
66459;Laerm;56836;52.570;4.692;2022-12-05T00:55:21;47.34;46.37;49.38;;
66459;Laerm;56836;52.570;4.692;2022-12-05T00:55:35;47.33;46.35;48.17;;
66459;Laerm;56836;52.570;4.692;2022-12-05T00:55:45;47.28;46.56;48.23;;
66459;Laerm;56836;52.570;4.692;2022-12-05T00:55:56;47.26;46.08;48.30;;
66459;Laerm;56836;52.570;4.692;2022-12-05T00:56:07;47.26;46.44;48.23;;
66459;Laerm;56836;52.570;4.692;2022-12-05T00:56:19;47.28;46.25;48.31;;
66459;Laerm;56836;52.570;4.692;2022-12-05T00:56:30;47.30;46.23;48.28;;
66459;Laerm;56836;52.570;4.692;2022-12-05T00:56:43;47.28;46.49;48.11;;
66459;Laerm;56836;52.570;4.692;2022-12-05T00:56:54;47.27;46.21;48.12;;
66459;Laerm;56836;52.570;4.692;2022-12-05T00:57:05;47.25;46.43;48.14;;
66459;Laerm;56836;52.570;4.692;2022-12-05T00:57:15;47.25;46.22;48.29;;
66459;Laerm;56836;52.570;4.692;2022-12-05T00:57:26;47.28;46.45;48.16;;
66459;Laerm;56836;52.570;4.692;2022-12-05T00:57:36;47.26;46.16;48.29;;
66459;Laerm;56836;52.570;4.692;2022-12-05T00:57:47;47.27;46.32;48.03;;
66459;Laerm;56836;52.570;4.692;2022-12-05T00:57:57;47.25;46.38;48.13;;
66459;Laerm;56836;52.570;4.692;2022-12-05T00:58:07;47.25;46.44;48.01;;
66459;Laerm;56836;52.570;4.692;2022-12-05T00:58:19;47.31;46.24;48.21;;
66459;Laerm;56836;52.570;4.692;2022-12-05T00:58:29;47.25;45.94;48.06;;
66459;Laerm;56836;52.570;4.692;2022-12-05T00:58:40;47.26;46.24;48.06;;
66459;Laerm;56836;52.570;4.692;2022-12-05T00:58:51;47.33;46.37;49.40;;
66459;Laerm;56836;52.570;4.692;2022-12-05T00:59:03;47.26;46.47;48.30;;
66459;Laerm;56836;52.570;4.692;2022-12-05T00:59:15;47.27;46.25;48.15;;
66459;Laerm;56836;52.570;4.692;2022-12-05T00:59:26;47.30;46.33;48.07;;
66459;Laerm;56836;52.570;4.692;2022-12-05T00:59:36;47.28;46.30;48.27;;
66459;Laerm;56836;52.570;4.692;2022-12-05T00:59:49;47.27;46.40;48.40;;
66459;Laerm;56836;52.570;4.692;2022-12-05T00:59:59;47.29;46.50;48.12;;
66459;Laerm;56836;52.570;4.692;2022-12-05T01:00:09;47.30;46.45;48.33;;
66459;Laerm;56836;52.570;4.692;2022-12-05T01:00:20;47.26;46.43;48.11;;
66459;Laerm;56836;52.570;4.692;2022-12-05T01:00:30;47.37;46.25;48.68;;
66459;Laerm;56836;52.570;4.692;2022-12-05T01:00:41;47.33;46.54;48.43;;
66459;Laerm;56836;52.570;4.692;2022-12-05T01:00:51;47.34;46.49;48.49;;
66459;Laerm;56836;52.570;4.692;2022-12-05T01:01:09;47.30;46.55;48.04;;
66459;Laerm;56836;52.570;4.692;2022-12-05T01:01:21;47.30;46.46;48.35;;
66459;Laerm;56836;52.570;4.692;2022-12-05T01:01:33;47.31;46.34;48.15;;
66459;Laerm;56836;52.570;4.692;2022-12-05T01:01:44;47.30;46.33;48.21;;
66459;Laerm;56836;52.570;4.692;2022-12-05T01:01:56;47.28;45.95;48.15;;
66459;Laerm;56836;52.570;4.692;2022-12-05T01:02:07;47.32;46.36;48.26;;
66459;Laerm;56836;52.570;4.692;2022-12-05T01:02:17;47.29;46.33;48.19;;
66459;Laerm;56836;52.570;4.692;2022-12-05T01:02:27;47.31;46.20;48.02;;
66459;Laerm;56836;52.570;4.692;2022-12-05T01:02:39;47.27;46.21;47.99;;
66459;Laerm;56836;52.570;4.692;2022-12-05T01:02:49;47.29;46.46;48.03;;
66459;Laerm;56836;52.570;4.692;2022-12-05T01:02:59;47.30;46.45;48.30;;
66459;Laerm;56836;52.570;4.692;2022-12-05T01:03:10;47.46;46.39;49.14;;
66459;Laerm;56836;52.570;4.692;2022-12-05T01:03:20;47.34;46.24;48.87;;
66459;Laerm;56836;52.570;4.692;2022-12-05T01:03:32;47.30;46.27;48.29;;
66459;Laerm;56836;52.570;4.692;2022-12-05T01:03:43;47.30;46.41;48.32;;
66459;Laerm;56836;52.570;4.692;2022-12-05T01:03:54;47.38;46.49;49.09;;